sensor_id;sensor_type;location;lat;lon;timestamp;P1;durP1;ratioP1;P2;durP2;ratioP2
52790;SDS011;41253;46.856;-71.574;2022-09-09T00:00:47;10.38;;;5.70;;
52790;SDS011;41253;46.856;-71.574;2022-09-09T00:03:26;8.20;;;5.07;;
52790;SDS011;41253;46.856;-71.574;2022-09-09T00:06:00;6.80;;;5.10;;
52790;SDS011;41253;46.856;-71.574;2022-09-09T00:11:24;6.72;;;5.05;;
52790;SDS011;41253;46.856;-71.574;2022-09-09T00:13:58;8.07;;;5.35;;
52790;SDS011;41253;46.856;-71.574;2022-09-09T00:16:30;9.82;;;5.15;;
52790;SDS011;41253;46.856;-71.574;2022-09-09T00:19:04;9.38;;;5.70;;
52790;SDS011;41253;46.856;-71.574;2022-09-09T00:24:38;6.03;;;5.32;;
52790;SDS011;41253;46.856;-71.574;2022-09-09T00:27:22;8.65;;;5.55;;
52790;SDS011;41253;46.856;-71.574;2022-09-09T00:32:48;8.48;;;5.13;;
52790;SDS011;41253;46.856;-71.574;2022-09-09T00:37:50;9.23;;;4.97;;
52790;SDS011;41253;46.856;-71.574;2022-09-09T00:40:38;8.20;;;5.40;;
52790;SDS011;41253;46.856;-71.574;2022-09-09T00:43:28;9.35;;;5.78;;
52790;SDS011;41253;46.856;-71.574;2022-09-09T00:51:29;9.18;;;5.72;;
52790;SDS011;41253;46.856;-71.574;2022-09-09T00:54:18;10.52;;;5.35;;
52790;SDS011;41253;46.856;-71.574;2022-09-09T00:59:48;9.30;;;5.47;;
52790;SDS011;41253;46.856;-71.574;2022-09-09T01:02:21;8.77;;;5.43;;
52790;SDS011;41253;46.856;-71.574;2022-09-09T01:04:54;7.28;;;4.95;;
52790;SDS011;41253;46.856;-71.574;2022-09-09T01:07:26;7.93;;;5.28;;
52790;SDS011;41253;46.856;-71.574;2022-09-09T01:09:57;10.30;;;5.30;;
52790;SDS011;41253;46.856;-71.574;2022-09-09T01:12:30;7.82;;;5.30;;
52790;SDS011;41253;46.856;-71.574;2022-09-09T01:17:53;12.02;;;5.07;;
52790;SDS011;41253;46.856;-71.574;2022-09-09T01:20:39;6.45;;;4.72;;
52790;SDS011;41253;46.856;-71.574;2022-09-09T01:26:10;8.18;;;4.63;;
52790;SDS011;41253;46.856;-71.574;2022-09-09T01:28:42;5.50;;;4.70;;
52790;SDS011;41253;46.856;-71.574;2022-09-09T01:31:15;6.72;;;4.40;;
52790;SDS011;41253;46.856;-71.574;2022-09-09T01:33:45;5.82;;;4.72;;
52790;SDS011;41253;46.856;-71.574;2022-09-09T01:36:20;8.02;;;5.03;;
52790;SDS011;41253;46.856;-71.574;2022-09-09T01:39:10;8.20;;;5.00;;
52790;SDS011;41253;46.856;-71.574;2022-09-09T01:41:37;5.60;;;4.38;;
52790;SDS011;41253;46.856;-71.574;2022-09-09T01:44:04;6.85;;;4.85;;
52790;SDS011;41253;46.856;-71.574;2022-09-09T01:46:33;7.93;;;4.50;;
52790;SDS011;41253;46.856;-71.574;2022-09-09T01:48:59;6.45;;;4.30;;
52790;SDS011;41253;46.856;-71.574;2022-09-09T01:51:28;6.30;;;4.95;;
52790;SDS011;41253;46.856;-71.574;2022-09-09T01:53:55;6.57;;;5.05;;
52790;SDS011;41253;46.856;-71.574;2022-09-09T01:56:31;8.88;;;4.93;;
52790;SDS011;41253;46.856;-71.574;2022-09-09T01:59:11;8.27;;;4.70;;
52790;SDS011;41253;46.856;-71.574;2022-09-09T02:04:36;6.97;;;5.13;;
52790;SDS011;41253;46.856;-71.574;2022-09-09T02:07:10;6.28;;;4.95;;
52790;SDS011;41253;46.856;-71.574;2022-09-09T02:10:01;6.10;;;4.40;;
52790;SDS011;41253;46.856;-71.574;2022-09-09T02:12:40;6.85;;;5.10;;
52790;SDS011;41253;46.856;-71.574;2022-09-09T02:15:23;6.72;;;4.78;;
52790;SDS011;41253;46.856;-71.574;2022-09-09T02:17:58;8.95;;;5.78;;
52790;SDS011;41253;46.856;-71.574;2022-09-09T02:20:27;8.63;;;5.00;;
52790;SDS011;41253;46.856;-71.574;2022-09-09T02:22:58;7.20;;;5.22;;
52790;SDS011;41253;46.856;-71.574;2022-09-09T02:25:28;8.23;;;5.40;;
52790;SDS011;41253;46.856;-71.574;2022-09-09T02:27:57;10.52;;;5.40;;
52790;SDS011;41253;46.856;-71.574;2022-09-09T02:30:24;7.00;;;5.43;;
52790;SDS011;41253;46.856;-71.574;2022-09-09T02:32:54;7.15;;;5.47;;
52790;SDS011;41253;46.856;-71.574;2022-09-09T02:35:23;9.23;;;5.57;;
52790;SDS011;41253;46.856;-71.574;2022-09-09T02:37:51;6.85;;;5.40;;
52790;SDS011;41253;46.856;-71.574;2022-09-09T02:40:21;6.68;;;5.97;;
52790;SDS011;41253;46.856;-71.574;2022-09-09T02:42:48;6.53;;;5.50;;
52790;SDS011;41253;46.856;-71.574;2022-09-09T02:45:18;6.72;;;5.43;;
52790;SDS011;41253;46.856;-71.574;2022-09-09T02:47:50;8.13;;;6.60;;
52790;SDS011;41253;46.856;-71.574;2022-09-09T02:50:22;7.47;;;5.63;;
52790;SDS011;41253;46.856;-71.574;2022-09-09T02:53:01;8.65;;;5.75;;
52790;SDS011;41253;46.856;-71.574;2022-09-09T02:55:37;14.25;;;6.28;;
52790;SDS011;41253;46.856;-71.574;2022-09-09T02:58:09;7.95;;;6.30;;
52790;SDS011;41253;46.856;-71.574;2022-09-09T03:00:39;9.93;;;6.65;;
52790;SDS011;41253;46.856;-71.574;2022-09-09T03:03:08;8.27;;;6.47;;
52790;SDS011;41253;46.856;-71.574;2022-09-09T03:05:35;9.15;;;6.85;;
52790;SDS011;41253;46.856;-71.574;2022-09-09T03:08:02;10.90;;;6.97;;
52790;SDS011;41253;46.856;-71.574;2022-09-09T03:10:29;9.43;;;6.50;;
52790;SDS011;41253;46.856;-71.574;2022-09-09T03:12:55;10.35;;;7.32;;
52790;SDS011;41253;46.856;-71.574;2022-09-09T03:15:22;10.73;;;7.20;;
52790;SDS011;41253;46.856;-71.574;2022-09-09T03:17:48;8.02;;;6.50;;
52790;SDS011;41253;46.856;-71.574;2022-09-09T03:20:14;9.30;;;6.18;;
52790;SDS011;41253;46.856;-71.574;2022-09-09T03:22:41;8.55;;;7.35;;
52790;SDS011;41253;46.856;-71.574;2022-09-09T03:25:09;11.45;;;7.22;;
52790;SDS011;41253;46.856;-71.574;2022-09-09T03:27:35;9.90;;;7.30;;
52790;SDS011;41253;46.856;-71.574;2022-09-09T03:30:02;10.60;;;7.53;;
52790;SDS011;41253;46.856;-71.574;2022-09-09T03:32:29;8.27;;;6.85;;
52790;SDS011;41253;46.856;-71.574;2022-09-09T03:34:56;9.00;;;6.57;;
52790;SDS011;41253;46.856;-71.574;2022-09-09T03:37:23;9.20;;;7.55;;
52790;SDS011;41253;46.856;-71.574;2022-09-09T03:39:49;10.77;;;7.07;;
52790;SDS011;41253;46.856;-71.574;2022-09-09T03:42:15;9.98;;;6.88;;
52790;SDS011;41253;46.856;-71.574;2022-09-09T03:44:45;10.73;;;7.90;;
52790;SDS011;41253;46.856;-71.574;2022-09-09T03:47:18;13.88;;;7.82;;
52790;SDS011;41253;46.856;-71.574;2022-09-09T03:49:45;11.63;;;7.38;;
52790;SDS011;41253;46.856;-71.574;2022-09-09T03:52:12;11.27;;;7.22;;
52790;SDS011;41253;46.856;-71.574;2022-09-09T03:54:38;11.48;;;6.72;;
52790;SDS011;41253;46.856;-71.574;2022-09-09T03:57:04;8.57;;;6.68;;
52790;SDS011;41253;46.856;-71.574;2022-09-09T03:59:31;11.82;;;8.40;;
52790;SDS011;41253;46.856;-71.574;2022-09-09T04:01:57;12.15;;;7.10;;
52790;SDS011;41253;46.856;-71.574;2022-09-09T04:04:24;11.40;;;7.78;;
52790;SDS011;41253;46.856;-71.574;2022-09-09T04:06:54;10.88;;;7.65;;
52790;SDS011;41253;46.856;-71.574;2022-09-09T04:09:20;11.48;;;7.65;;
52790;SDS011;41253;46.856;-71.574;2022-09-09T04:11:46;10.93;;;7.28;;
52790;SDS011;41253;46.856;-71.574;2022-09-09T04:14:14;9.23;;;6.72;;
52790;SDS011;41253;46.856;-71.574;2022-09-09T04:16:41;10.82;;;7.15;;
52790;SDS011;41253;46.856;-71.574;2022-09-09T04:19:10;8.07;;;6.68;;
52790;SDS011;41253;46.856;-71.574;2022-09-09T04:21:39;9.20;;;7.30;;
52790;SDS011;41253;46.856;-71.574;2022-09-09T04:24:09;11.82;;;7.50;;
52790;SDS011;41253;46.856;-71.574;2022-09-09T04:26:35;10.70;;;6.90;;
52790;SDS011;41253;46.856;-71.574;2022-09-09T04:29:03;9.82;;;7.43;;
52790;SDS011;41253;46.856;-71.574;2022-09-09T04:31:30;10.35;;;6.88;;
52790;SDS011;41253;46.856;-71.574;2022-09-09T04:33:56;9.77;;;7.15;;
52790;SDS011;41253;46.856;-71.574;2022-09-09T04:36:23;10.80;;;7.63;;
52790;SDS011;41253;46.856;-71.574;2022-09-09T04:38:49;7.85;;;7.05;;
52790;SDS011;41253;46.856;-71.574;2022-09-09T04:41:16;8.60;;;7.50;;
52790;SDS011;41253;46.856;-71.574;2022-09-09T04:43:42;9.25;;;6.97;;
52790;SDS011;41253;46.856;-71.574;2022-09-09T04:46:09;14.07;;;7.07;;
52790;SDS011;41253;46.856;-71.574;2022-09-09T04:48:35;12.45;;;7.43;;
52790;SDS011;41253;46.856;-71.574;2022-09-09T04:51:03;9.02;;;7.57;;
52790;SDS011;41253;46.856;-71.574;2022-09-09T04:53:31;10.23;;;7.18;;
52790;SDS011;41253;46.856;-71.574;2022-09-09T04:58:29;13.45;;;7.88;;
52790;SDS011;41253;46.856;-71.574;2022-09-09T05:01:02;10.75;;;7.85;;
52790;SDS011;41253;46.856;-71.574;2022-09-09T05:03:29;13.55;;;7.97;;
52790;SDS011;41253;46.856;-71.574;2022-09-09T05:06:02;10.50;;;7.53;;
52790;SDS011;41253;46.856;-71.574;2022-09-09T05:08:29;12.55;;;8.07;;
52790;SDS011;41253;46.856;-71.574;2022-09-09T05:10:55;11.27;;;7.88;;
52790;SDS011;41253;46.856;-71.574;2022-09-09T05:13:22;11.25;;;7.72;;
52790;SDS011;41253;46.856;-71.574;2022-09-09T05:15:54;11.13;;;7.38;;
52790;SDS011;41253;46.856;-71.574;2022-09-09T05:18:21;10.50;;;8.15;;
52790;SDS011;41253;46.856;-71.574;2022-09-09T05:20:48;10.73;;;8.18;;
52790;SDS011;41253;46.856;-71.574;2022-09-09T05:23:16;10.60;;;7.97;;
52790;SDS011;41253;46.856;-71.574;2022-09-09T05:25:42;13.30;;;8.45;;
52790;SDS011;41253;46.856;-71.574;2022-09-09T05:28:09;9.75;;;8.13;;
52790;SDS011;41253;46.856;-71.574;2022-09-09T05:30:37;10.77;;;8.50;;
52790;SDS011;41253;46.856;-71.574;2022-09-09T05:33:03;8.93;;;6.32;;
52790;SDS011;41253;46.856;-71.574;2022-09-09T05:35:31;8.80;;;7.65;;
52790;SDS011;41253;46.856;-71.574;2022-09-09T05:37:59;12.38;;;8.05;;
52790;SDS011;41253;46.856;-71.574;2022-09-09T05:40:25;9.15;;;7.82;;
52790;SDS011;41253;46.856;-71.574;2022-09-09T05:42:52;11.73;;;7.82;;
52790;SDS011;41253;46.856;-71.574;2022-09-09T05:45:18;14.23;;;8.63;;
52790;SDS011;41253;46.856;-71.574;2022-09-09T05:47:45;12.18;;;7.82;;
52790;SDS011;41253;46.856;-71.574;2022-09-09T05:50:20;9.05;;;7.45;;
52790;SDS011;41253;46.856;-71.574;2022-09-09T05:52:47;10.18;;;6.95;;
52790;SDS011;41253;46.856;-71.574;2022-09-09T05:55:15;8.70;;;6.40;;
52790;SDS011;41253;46.856;-71.574;2022-09-09T05:57:41;8.77;;;7.85;;
52790;SDS011;41253;46.856;-71.574;2022-09-09T06:00:08;10.38;;;7.85;;
52790;SDS011;41253;46.856;-71.574;2022-09-09T06:02:34;12.68;;;8.32;;
52790;SDS011;41253;46.856;-71.574;2022-09-09T06:05:03;13.15;;;8.45;;
52790;SDS011;41253;46.856;-71.574;2022-09-09T06:07:30;14.70;;;8.38;;
52790;SDS011;41253;46.856;-71.574;2022-09-09T06:09:56;11.40;;;8.02;;
52790;SDS011;41253;46.856;-71.574;2022-09-09T06:12:25;10.15;;;7.93;;
52790;SDS011;41253;46.856;-71.574;2022-09-09T06:14:51;11.02;;;8.38;;
52790;SDS011;41253;46.856;-71.574;2022-09-09T06:17:17;12.30;;;8.10;;
52790;SDS011;41253;46.856;-71.574;2022-09-09T06:19:44;13.45;;;7.95;;
52790;SDS011;41253;46.856;-71.574;2022-09-09T06:22:10;12.57;;;8.05;;
52790;SDS011;41253;46.856;-71.574;2022-09-09T06:24:37;9.85;;;7.78;;
52790;SDS011;41253;46.856;-71.574;2022-09-09T06:27:04;9.95;;;7.20;;
52790;SDS011;41253;46.856;-71.574;2022-09-09T06:29:30;10.00;;;6.88;;
52790;SDS011;41253;46.856;-71.574;2022-09-09T06:31:57;8.77;;;7.07;;
52790;SDS011;41253;46.856;-71.574;2022-09-09T06:34:24;11.02;;;7.38;;
52790;SDS011;41253;46.856;-71.574;2022-09-09T06:36:50;9.27;;;6.90;;
52790;SDS011;41253;46.856;-71.574;2022-09-09T06:39:17;10.90;;;7.18;;
52790;SDS011;41253;46.856;-71.574;2022-09-09T06:41:43;7.88;;;6.18;;
52790;SDS011;41253;46.856;-71.574;2022-09-09T06:44:10;13.98;;;7.10;;
52790;SDS011;41253;46.856;-71.574;2022-09-09T06:46:40;8.77;;;7.28;;
52790;SDS011;41253;46.856;-71.574;2022-09-09T06:49:07;10.55;;;7.30;;
52790;SDS011;41253;46.856;-71.574;2022-09-09T06:51:35;9.15;;;7.40;;
52790;SDS011;41253;46.856;-71.574;2022-09-09T06:54:08;10.68;;;7.35;;
52790;SDS011;41253;46.856;-71.574;2022-09-09T06:56:36;12.05;;;7.03;;
52790;SDS011;41253;46.856;-71.574;2022-09-09T06:59:06;9.15;;;5.95;;
52790;SDS011;41253;46.856;-71.574;2022-09-09T07:01:35;8.77;;;6.90;;
52790;SDS011;41253;46.856;-71.574;2022-09-09T07:04:03;9.20;;;7.00;;
52790;SDS011;41253;46.856;-71.574;2022-09-09T07:06:33;13.48;;;7.78;;
52790;SDS011;41253;46.856;-71.574;2022-09-09T07:09:06;8.32;;;6.82;;
52790;SDS011;41253;46.856;-71.574;2022-09-09T07:11:37;9.27;;;6.78;;
52790;SDS011;41253;46.856;-71.574;2022-09-09T07:14:14;8.90;;;7.00;;
52790;SDS011;41253;46.856;-71.574;2022-09-09T07:16:41;8.30;;;6.78;;
52790;SDS011;41253;46.856;-71.574;2022-09-09T07:19:09;13.70;;;7.05;;
52790;SDS011;41253;46.856;-71.574;2022-09-09T07:21:36;9.77;;;7.47;;
52790;SDS011;41253;46.856;-71.574;2022-09-09T07:24:03;9.57;;;6.70;;
52790;SDS011;41253;46.856;-71.574;2022-09-09T07:26:32;11.07;;;7.10;;
52790;SDS011;41253;46.856;-71.574;2022-09-09T07:28:59;11.27;;;8.30;;
52790;SDS011;41253;46.856;-71.574;2022-09-09T07:31:27;12.70;;;7.68;;
52790;SDS011;41253;46.856;-71.574;2022-09-09T07:33:56;9.88;;;7.47;;
52790;SDS011;41253;46.856;-71.574;2022-09-09T07:36:40;8.75;;;7.30;;
52790;SDS011;41253;46.856;-71.574;2022-09-09T07:39:11;7.45;;;6.32;;
52790;SDS011;41253;46.856;-71.574;2022-09-09T07:44:11;8.57;;;7.07;;
52790;SDS011;41253;46.856;-71.574;2022-09-09T07:46:39;7.95;;;6.65;;
52790;SDS011;41253;46.856;-71.574;2022-09-09T07:49:06;10.43;;;6.95;;
52790;SDS011;41253;46.856;-71.574;2022-09-09T07:51:34;8.98;;;6.97;;
52790;SDS011;41253;46.856;-71.574;2022-09-09T07:54:04;9.50;;;7.28;;
52790;SDS011;41253;46.856;-71.574;2022-09-09T07:56:32;9.27;;;6.60;;
52790;SDS011;41253;46.856;-71.574;2022-09-09T07:58:59;9.30;;;7.10;;
52790;SDS011;41253;46.856;-71.574;2022-09-09T08:01:27;11.13;;;7.70;;
52790;SDS011;41253;46.856;-71.574;2022-09-09T08:03:56;11.57;;;7.63;;
52790;SDS011;41253;46.856;-71.574;2022-09-09T08:06:29;9.00;;;7.95;;
52790;SDS011;41253;46.856;-71.574;2022-09-09T08:09:04;8.05;;;6.85;;
52790;SDS011;41253;46.856;-71.574;2022-09-09T08:11:31;9.63;;;7.82;;
52790;SDS011;41253;46.856;-71.574;2022-09-09T08:13:58;11.73;;;7.82;;
52790;SDS011;41253;46.856;-71.574;2022-09-09T08:16:26;12.10;;;8.45;;
52790;SDS011;41253;46.856;-71.574;2022-09-09T08:18:58;11.32;;;7.95;;
52790;SDS011;41253;46.856;-71.574;2022-09-09T08:21:26;11.50;;;8.48;;
52790;SDS011;41253;46.856;-71.574;2022-09-09T08:23:54;10.15;;;8.48;;
52790;SDS011;41253;46.856;-71.574;2022-09-09T08:26:22;15.25;;;9.60;;
52790;SDS011;41253;46.856;-71.574;2022-09-09T08:29:01;9.90;;;6.95;;
52790;SDS011;41253;46.856;-71.574;2022-09-09T08:31:30;16.33;;;8.32;;
52790;SDS011;41253;46.856;-71.574;2022-09-09T08:34:02;8.38;;;7.45;;
52790;SDS011;41253;46.856;-71.574;2022-09-09T08:36:32;10.65;;;6.45;;
52790;SDS011;41253;46.856;-71.574;2022-09-09T08:39:00;12.20;;;8.63;;
52790;SDS011;41253;46.856;-71.574;2022-09-09T08:49:05;10.65;;;7.55;;
52790;SDS011;41253;46.856;-71.574;2022-09-09T08:51:49;9.75;;;7.88;;
52790;SDS011;41253;46.856;-71.574;2022-09-09T08:54:16;9.27;;;6.70;;
52790;SDS011;41253;46.856;-71.574;2022-09-09T08:56:43;12.52;;;7.15;;
52790;SDS011;41253;46.856;-71.574;2022-09-09T08:59:09;7.95;;;6.95;;
52790;SDS011;41253;46.856;-71.574;2022-09-09T09:07:34;9.60;;;7.55;;
52790;SDS011;41253;46.856;-71.574;2022-09-09T09:12:57;12.13;;;8.93;;
52790;SDS011;41253;46.856;-71.574;2022-09-09T09:15:30;15.30;;;8.60;;
52790;SDS011;41253;46.856;-71.574;2022-09-09T09:18:02;12.65;;;8.88;;
52790;SDS011;41253;46.856;-71.574;2022-09-09T09:20:36;10.47;;;7.80;;
52790;SDS011;41253;46.856;-71.574;2022-09-09T09:23:12;12.30;;;8.20;;
52790;SDS011;41253;46.856;-71.574;2022-09-09T09:25:46;11.23;;;9.05;;
52790;SDS011;41253;46.856;-71.574;2022-09-09T09:36:06;12.13;;;8.90;;
52790;SDS011;41253;46.856;-71.574;2022-09-09T09:38:34;11.30;;;8.37;;
52790;SDS011;41253;46.856;-71.574;2022-09-09T09:41:01;11.43;;;8.53;;
52790;SDS011;41253;46.856;-71.574;2022-09-09T09:43:29;11.37;;;8.60;;
52790;SDS011;41253;46.856;-71.574;2022-09-09T09:45:57;10.27;;;8.73;;
52790;SDS011;41253;46.856;-71.574;2022-09-09T09:48:24;11.50;;;7.93;;
52790;SDS011;41253;46.856;-71.574;2022-09-09T09:50:53;8.77;;;7.53;;
52790;SDS011;41253;46.856;-71.574;2022-09-09T09:53:32;13.37;;;9.23;;
52790;SDS011;41253;46.856;-71.574;2022-09-09T09:56:03;10.77;;;8.53;;
52790;SDS011;41253;46.856;-71.574;2022-09-09T09:58:31;11.93;;;9.13;;
52790;SDS011;41253;46.856;-71.574;2022-09-09T10:01:23;14.30;;;10.40;;
52790;SDS011;41253;46.856;-71.574;2022-09-09T10:03:54;12.37;;;9.40;;
52790;SDS011;41253;46.856;-71.574;2022-09-09T10:06:32;13.57;;;9.63;;
52790;SDS011;41253;46.856;-71.574;2022-09-09T10:09:01;15.57;;;10.67;;
52790;SDS011;41253;46.856;-71.574;2022-09-09T10:11:32;15.03;;;11.10;;
52790;SDS011;41253;46.856;-71.574;2022-09-09T10:14:20;18.57;;;12.00;;
52790;SDS011;41253;46.856;-71.574;2022-09-09T10:16:58;17.23;;;11.20;;
52790;SDS011;41253;46.856;-71.574;2022-09-09T10:19:42;17.23;;;10.83;;
52790;SDS011;41253;46.856;-71.574;2022-09-09T10:22:35;16.47;;;10.27;;
52790;SDS011;41253;46.856;-71.574;2022-09-09T10:25:17;14.17;;;10.20;;
52790;SDS011;41253;46.856;-71.574;2022-09-09T10:33:50;17.03;;;10.80;;
52790;SDS011;41253;46.856;-71.574;2022-09-09T10:36:23;15.47;;;11.60;;
52790;SDS011;41253;46.856;-71.574;2022-09-09T10:38:59;13.30;;;10.70;;
52790;SDS011;41253;46.856;-71.574;2022-09-09T10:52:26;13.47;;;10.53;;
52790;SDS011;41253;46.856;-71.574;2022-09-09T10:55:09;12.37;;;10.23;;
52790;SDS011;41253;46.856;-71.574;2022-09-09T11:00:24;10.60;;;8.37;;
52790;SDS011;41253;46.856;-71.574;2022-09-09T11:03:29;16.30;;;10.15;;
52790;SDS011;41253;46.856;-71.574;2022-09-09T11:06:05;16.90;;;10.82;;
52790;SDS011;41253;46.856;-71.574;2022-09-09T11:08:37;16.90;;;11.63;;
52790;SDS011;41253;46.856;-71.574;2022-09-09T11:16:45;23.20;;;13.70;;
52790;SDS011;41253;46.856;-71.574;2022-09-09T11:21:49;18.38;;;11.30;;
52790;SDS011;41253;46.856;-71.574;2022-09-09T11:24:22;18.25;;;11.90;;
52790;SDS011;41253;46.856;-71.574;2022-09-09T11:26:51;17.65;;;11.70;;
52790;SDS011;41253;46.856;-71.574;2022-09-09T11:40:31;21.67;;;14.50;;
52790;SDS011;41253;46.856;-71.574;2022-09-09T11:43:14;19.67;;;13.90;;
52790;SDS011;41253;46.856;-71.574;2022-09-09T11:45:51;19.92;;;13.15;;
52790;SDS011;41253;46.856;-71.574;2022-09-09T11:48:35;20.58;;;13.65;;
52790;SDS011;41253;46.856;-71.574;2022-09-09T11:51:10;21.50;;;14.10;;
52790;SDS011;41253;46.856;-71.574;2022-09-09T11:56:42;16.63;;;12.25;;
52790;SDS011;41253;46.856;-71.574;2022-09-09T12:01:50;21.55;;;12.13;;
52790;SDS011;41253;46.856;-71.574;2022-09-09T12:04:29;15.73;;;11.77;;
52790;SDS011;41253;46.856;-71.574;2022-09-09T12:19:40;13.23;;;8.15;;
52790;SDS011;41253;46.856;-71.574;2022-09-09T12:22:11;13.15;;;9.13;;
52790;SDS011;41253;46.856;-71.574;2022-09-09T12:24:49;12.63;;;9.38;;
52790;SDS011;41253;46.856;-71.574;2022-09-09T12:27:41;11.90;;;8.65;;
52790;SDS011;41253;46.856;-71.574;2022-09-09T12:30:16;17.27;;;9.95;;
52790;SDS011;41253;46.856;-71.574;2022-09-09T12:32:43;14.15;;;9.43;;
52790;SDS011;41253;46.856;-71.574;2022-09-09T12:35:11;16.45;;;10.38;;
52790;SDS011;41253;46.856;-71.574;2022-09-09T12:37:48;16.50;;;10.13;;
52790;SDS011;41253;46.856;-71.574;2022-09-09T12:40:25;17.48;;;11.40;;
52790;SDS011;41253;46.856;-71.574;2022-09-09T12:43:00;18.60;;;11.82;;
52790;SDS011;41253;46.856;-71.574;2022-09-09T12:45:31;19.08;;;11.70;;
52790;SDS011;41253;46.856;-71.574;2022-09-09T12:48:03;19.35;;;12.35;;
52790;SDS011;41253;46.856;-71.574;2022-09-09T12:50:34;18.98;;;11.77;;
52790;SDS011;41253;46.856;-71.574;2022-09-09T12:55:53;21.30;;;12.55;;
52790;SDS011;41253;46.856;-71.574;2022-09-09T12:58:47;20.40;;;12.45;;
52790;SDS011;41253;46.856;-71.574;2022-09-09T13:01:18;15.60;;;11.52;;
52790;SDS011;41253;46.856;-71.574;2022-09-09T13:03:54;16.20;;;11.60;;
52790;SDS011;41253;46.856;-71.574;2022-09-09T13:06:23;16.17;;;11.48;;
52790;SDS011;41253;46.856;-71.574;2022-09-09T13:08:51;18.63;;;12.15;;
52790;SDS011;41253;46.856;-71.574;2022-09-09T13:11:23;21.02;;;11.70;;
52790;SDS011;41253;46.856;-71.574;2022-09-09T13:13:54;15.25;;;11.05;;
52790;SDS011;41253;46.856;-71.574;2022-09-09T13:16:27;11.65;;;9.88;;
52790;SDS011;41253;46.856;-71.574;2022-09-09T13:18:59;12.48;;;9.93;;
52790;SDS011;41253;46.856;-71.574;2022-09-09T13:21:33;13.93;;;9.55;;
52790;SDS011;41253;46.856;-71.574;2022-09-09T13:24:03;13.35;;;10.45;;
52790;SDS011;41253;46.856;-71.574;2022-09-09T13:26:33;11.40;;;9.40;;
52790;SDS011;41253;46.856;-71.574;2022-09-09T13:29:18;10.05;;;8.80;;
52790;SDS011;41253;46.856;-71.574;2022-09-09T13:31:45;12.60;;;8.43;;
52790;SDS011;41253;46.856;-71.574;2022-09-09T13:34:33;11.25;;;8.27;;
52790;SDS011;41253;46.856;-71.574;2022-09-09T13:37:09;9.93;;;7.55;;
52790;SDS011;41253;46.856;-71.574;2022-09-09T13:39:52;8.50;;;7.10;;
52790;SDS011;41253;46.856;-71.574;2022-09-09T13:42:26;7.55;;;6.85;;
52790;SDS011;41253;46.856;-71.574;2022-09-09T13:44:55;6.38;;;5.78;;
52790;SDS011;41253;46.856;-71.574;2022-09-09T13:47:27;7.10;;;5.72;;
52790;SDS011;41253;46.856;-71.574;2022-09-09T13:50:22;6.82;;;6.13;;
52790;SDS011;41253;46.856;-71.574;2022-09-09T13:52:51;6.28;;;5.68;;
52790;SDS011;41253;46.856;-71.574;2022-09-09T13:55:19;6.75;;;5.68;;
52790;SDS011;41253;46.856;-71.574;2022-09-09T14:00:44;6.95;;;6.25;;
52790;SDS011;41253;46.856;-71.574;2022-09-09T14:03:12;6.40;;;5.15;;
52790;SDS011;41253;46.856;-71.574;2022-09-09T14:05:39;6.22;;;5.00;;
52790;SDS011;41253;46.856;-71.574;2022-09-09T14:08:06;5.78;;;5.15;;
52790;SDS011;41253;46.856;-71.574;2022-09-09T14:10:35;5.60;;;5.10;;
52790;SDS011;41253;46.856;-71.574;2022-09-09T14:13:02;5.72;;;5.20;;
52790;SDS011;41253;46.856;-71.574;2022-09-09T14:15:29;5.85;;;4.95;;
52790;SDS011;41253;46.856;-71.574;2022-09-09T14:17:55;5.63;;;5.13;;
52790;SDS011;41253;46.856;-71.574;2022-09-09T14:20:24;5.95;;;4.97;;
52790;SDS011;41253;46.856;-71.574;2022-09-09T14:22:50;6.22;;;4.82;;
52790;SDS011;41253;46.856;-71.574;2022-09-09T14:25:17;6.20;;;5.15;;
52790;SDS011;41253;46.856;-71.574;2022-09-09T14:27:43;8.18;;;4.80;;
52790;SDS011;41253;46.856;-71.574;2022-09-09T14:30:11;6.68;;;6.03;;
52790;SDS011;41253;46.856;-71.574;2022-09-09T14:32:37;7.90;;;5.45;;
52790;SDS011;41253;46.856;-71.574;2022-09-09T14:35:04;5.72;;;5.22;;
52790;SDS011;41253;46.856;-71.574;2022-09-09T14:37:30;8.80;;;5.53;;
52790;SDS011;41253;46.856;-71.574;2022-09-09T14:39:57;6.05;;;5.18;;
52790;SDS011;41253;46.856;-71.574;2022-09-09T14:42:23;7.68;;;5.95;;
52790;SDS011;41253;46.856;-71.574;2022-09-09T14:44:50;6.10;;;5.50;;
52790;SDS011;41253;46.856;-71.574;2022-09-09T14:47:16;7.78;;;5.90;;
52790;SDS011;41253;46.856;-71.574;2022-09-09T14:49:43;6.32;;;5.13;;
52790;SDS011;41253;46.856;-71.574;2022-09-09T14:52:11;8.88;;;5.90;;
52790;SDS011;41253;46.856;-71.574;2022-09-09T14:54:38;6.78;;;4.88;;
52790;SDS011;41253;46.856;-71.574;2022-09-09T14:57:04;6.03;;;5.38;;
52790;SDS011;41253;46.856;-71.574;2022-09-09T14:59:31;6.30;;;5.65;;
52790;SDS011;41253;46.856;-71.574;2022-09-09T15:01:57;6.45;;;5.65;;
52790;SDS011;41253;46.856;-71.574;2022-09-09T15:04:26;9.80;;;6.03;;
52790;SDS011;41253;46.856;-71.574;2022-09-09T15:06:53;7.75;;;6.25;;
52790;SDS011;41253;46.856;-71.574;2022-09-09T15:09:19;8.18;;;6.85;;
52790;SDS011;41253;46.856;-71.574;2022-09-09T15:11:45;7.40;;;6.43;;
52790;SDS011;41253;46.856;-71.574;2022-09-09T15:14:12;9.60;;;6.13;;
52790;SDS011;41253;46.856;-71.574;2022-09-09T15:16:38;7.25;;;6.13;;
52790;SDS011;41253;46.856;-71.574;2022-09-09T15:19:06;6.97;;;5.90;;
52790;SDS011;41253;46.856;-71.574;2022-09-09T15:21:33;7.10;;;6.30;;
52790;SDS011;41253;46.856;-71.574;2022-09-09T15:24:01;8.95;;;6.75;;
52790;SDS011;41253;46.856;-71.574;2022-09-09T15:26:30;9.68;;;6.70;;
52790;SDS011;41253;46.856;-71.574;2022-09-09T15:28:56;6.97;;;6.28;;
52790;SDS011;41253;46.856;-71.574;2022-09-09T15:31:25;8.00;;;6.30;;
52790;SDS011;41253;46.856;-71.574;2022-09-09T15:34:02;8.88;;;7.03;;
52790;SDS011;41253;46.856;-71.574;2022-09-09T15:36:38;6.95;;;6.25;;
52790;SDS011;41253;46.856;-71.574;2022-09-09T15:39:10;10.82;;;7.35;;
52790;SDS011;41253;46.856;-71.574;2022-09-09T15:41:38;10.90;;;7.57;;
52790;SDS011;41253;46.856;-71.574;2022-09-09T15:44:05;9.05;;;7.15;;
52790;SDS011;41253;46.856;-71.574;2022-09-09T15:46:36;9.05;;;6.85;;
52790;SDS011;41253;46.856;-71.574;2022-09-09T15:49:10;9.40;;;7.93;;
52790;SDS011;41253;46.856;-71.574;2022-09-09T15:51:39;8.48;;;7.60;;
52790;SDS011;41253;46.856;-71.574;2022-09-09T15:54:07;9.65;;;7.75;;
52790;SDS011;41253;46.856;-71.574;2022-09-09T15:56:37;10.32;;;8.25;;
52790;SDS011;41253;46.856;-71.574;2022-09-09T15:59:04;8.80;;;7.85;;
52790;SDS011;41253;46.856;-71.574;2022-09-09T16:01:30;11.25;;;8.85;;
52790;SDS011;41253;46.856;-71.574;2022-09-09T16:03:57;9.98;;;8.63;;
52790;SDS011;41253;46.856;-71.574;2022-09-09T16:06:25;12.10;;;9.25;;
52790;SDS011;41253;46.856;-71.574;2022-09-09T16:08:54;10.55;;;8.30;;
52790;SDS011;41253;46.856;-71.574;2022-09-09T16:11:23;13.98;;;10.20;;
52790;SDS011;41253;46.856;-71.574;2022-09-09T16:13:52;14.45;;;9.20;;
52790;SDS011;41253;46.856;-71.574;2022-09-09T16:16:20;12.20;;;9.98;;
52790;SDS011;41253;46.856;-71.574;2022-09-09T16:18:50;9.98;;;8.70;;
52790;SDS011;41253;46.856;-71.574;2022-09-09T16:21:20;13.38;;;9.02;;
52790;SDS011;41253;46.856;-71.574;2022-09-09T16:23:50;10.35;;;9.23;;
52790;SDS011;41253;46.856;-71.574;2022-09-09T16:26:18;11.38;;;10.18;;
52790;SDS011;41253;46.856;-71.574;2022-09-09T16:28:45;11.82;;;10.32;;
52790;SDS011;41253;46.856;-71.574;2022-09-09T16:31:16;10.57;;;9.50;;
52790;SDS011;41253;46.856;-71.574;2022-09-09T16:33:44;11.73;;;10.52;;